createdAt,value
2022-12-09T00:01:12.228Z,5.05
2022-12-09T00:03:40.625Z,5.06
2022-12-09T00:06:20.355Z,4.98
2022-12-09T00:08:49.160Z,5.04
2022-12-09T00:11:18.818Z,4.99
2022-12-09T00:13:53.452Z,4.98
2022-12-09T00:16:22.857Z,4.88
2022-12-09T00:18:51.513Z,4.98
2022-12-09T00:21:21.097Z,5.21
2022-12-09T00:23:50.673Z,5.34
2022-12-09T00:26:20.603Z,5.26
2022-12-09T00:28:49.984Z,5.33
2022-12-09T00:31:21.649Z,5.47
2022-12-09T00:33:50.338Z,5.31
2022-12-09T00:36:20.303Z,5.18
2022-12-09T00:38:48.869Z,5.10
2022-12-09T00:41:17.570Z,5.09
2022-12-09T00:43:46.829Z,5.19
2022-12-09T00:46:15.391Z,5.20
2022-12-09T00:48:47.735Z,5.17
2022-12-09T00:51:19.161Z,5.09
2022-12-09T00:53:47.608Z,5.05
2022-12-09T00:56:15.784Z,4.98
2022-12-09T00:58:43.865Z,4.86
2022-12-09T01:01:11.785Z,4.86
2022-12-09T01:03:40.117Z,4.94
2022-12-09T01:06:14.354Z,4.93
2022-12-09T01:08:43.017Z,4.87
2022-12-09T01:11:15.209Z,4.87
2022-12-09T01:13:42.904Z,4.90
2022-12-09T01:16:15.094Z,5.06
2022-12-09T01:18:43.434Z,5.19
2022-12-09T01:21:11.736Z,5.08
2022-12-09T01:23:40.651Z,5.01
2022-12-09T01:26:09.169Z,4.97
2022-12-09T01:28:39.639Z,4.98
2022-12-09T01:31:15.836Z,4.87
2022-12-09T01:33:44.739Z,4.87
2022-12-09T01:36:19.211Z,4.94
2022-12-09T01:38:47.939Z,5.01
2022-12-09T01:41:18.706Z,5.03
2022-12-09T01:43:46.616Z,5.01
2022-12-09T01:46:15.792Z,4.97
2022-12-09T01:48:46.651Z,5.12
2022-12-09T01:51:19.649Z,5.06
2022-12-09T01:53:50.767Z,5.01
2022-12-09T01:56:29.913Z,5.04
2022-12-09T01:59:05.214Z,5.06
2022-12-09T02:01:33.823Z,5.18
2022-12-09T02:04:02.234Z,4.98
2022-12-09T02:06:30.275Z,5.02
2022-12-09T02:08:58.833Z,5.14
2022-12-09T02:11:49.369Z,5.06
2022-12-09T02:14:27.855Z,4.80
2022-12-09T02:17:27.176Z,4.59
2022-12-09T02:20:14.479Z,4.48
2022-12-09T02:22:44.803Z,4.59
2022-12-09T02:25:18.361Z,4.69
2022-12-09T02:27:57.978Z,4.65
2022-12-09T02:30:37.801Z,4.77
2022-12-09T02:33:33.619Z,4.72
2022-12-09T02:36:15.138Z,4.64
2022-12-09T02:38:44.335Z,4.74
2022-12-09T02:41:19.626Z,4.79
2022-12-09T02:43:54.378Z,4.84
2022-12-09T02:46:28.546Z,4.76
2022-12-09T02:48:59.191Z,4.86
2022-12-09T02:51:32.595Z,4.73
2022-12-09T02:54:09.517Z,4.65
2022-12-09T02:56:40.769Z,4.66
2022-12-09T02:59:09.598Z,4.67
2022-12-09T03:02:02.481Z,4.74
2022-12-09T03:04:32.193Z,4.83
2022-12-09T03:07:20.580Z,4.84
2022-12-09T03:09:56.714Z,4.84
2022-12-09T03:12:30.904Z,4.72
2022-12-09T03:15:03.275Z,4.76
2022-12-09T03:17:35.824Z,4.95
2022-12-09T03:20:11.401Z,5.08
2022-12-09T03:22:43.272Z,5.12
2022-12-09T03:25:20.995Z,5.27
2022-12-09T03:28:02.310Z,5.28
2022-12-09T03:30:37.842Z,5.30
2022-12-09T03:33:06.078Z,5.39
2022-12-09T03:35:41.465Z,5.52
2022-12-09T03:38:14.867Z,5.59
2022-12-09T03:40:44.617Z,5.51
2022-12-09T03:43:16.306Z,5.55
2022-12-09T03:45:44.918Z,5.58
2022-12-09T03:48:13.973Z,5.62
2022-12-09T03:50:50.959Z,5.67
2022-12-09T03:53:23.915Z,5.51
2022-12-09T03:56:21.086Z,5.34
2022-12-09T03:58:57.475Z,5.33
2022-12-09T04:01:27.236Z,5.27
2022-12-09T04:03:57.286Z,5.24
2022-12-09T04:06:25.898Z,5.32
2022-12-09T04:08:56.813Z,5.48
2022-12-09T04:11:28.861Z,5.40
2022-12-09T04:13:56.559Z,5.35
2022-12-09T04:16:24.570Z,5.05
2022-12-09T04:18:52.446Z,5.07
2022-12-09T04:21:20.265Z,5.15
2022-12-09T04:23:48.095Z,5.23
2022-12-09T04:26:19.391Z,5.18
2022-12-09T04:28:48.083Z,5.12
2022-12-09T04:31:18.154Z,5.09
2022-12-09T04:33:47.312Z,5.06
2022-12-09T04:36:17.533Z,4.85
2022-12-09T04:38:46.481Z,4.75
2022-12-09T04:41:16.216Z,4.96
2022-12-09T04:43:44.627Z,4.99
2022-12-09T04:46:15.366Z,4.81
2022-12-09T04:48:43.932Z,4.67
2022-12-09T04:51:14.457Z,4.63
2022-12-09T04:53:42.660Z,4.64
2022-12-09T04:56:19.110Z,4.65
2022-12-09T04:58:49.207Z,4.64
2022-12-09T05:01:23.686Z,4.75
2022-12-09T05:03:57.028Z,4.83
2022-12-09T05:06:26.586Z,4.97
2022-12-09T05:08:55.698Z,5.13
2022-12-09T05:11:25.053Z,5.06
2022-12-09T05:13:54.097Z,4.88
2022-12-09T05:16:29.807Z,4.93
2022-12-09T05:18:59.801Z,4.95
2022-12-09T05:21:28.139Z,4.91
2022-12-09T05:23:57.577Z,5.01
2022-12-09T05:26:25.743Z,5.08
2022-12-09T05:28:54.272Z,5.01
2022-12-09T05:31:23.754Z,4.71
2022-12-09T05:33:52.662Z,4.74
2022-12-09T05:36:24.767Z,4.82
2022-12-09T05:38:54.066Z,4.83
2022-12-09T05:41:23.811Z,4.86
2022-12-09T05:43:53.327Z,4.84
2022-12-09T05:46:21.988Z,4.76
2022-12-09T05:48:50.853Z,4.56
2022-12-09T05:51:28.462Z,4.53
2022-12-09T05:54:04.564Z,4.59
2022-12-09T05:56:33.411Z,4.73
2022-12-09T05:59:01.932Z,4.80
2022-12-09T06:01:30.712Z,4.93
2022-12-09T06:03:58.722Z,4.95
2022-12-09T06:06:30.366Z,4.93
2022-12-09T06:09:02.770Z,4.84
2022-12-09T06:11:32.795Z,4.71
2022-12-09T06:14:01.559Z,4.78
2022-12-09T06:16:29.949Z,4.88
2022-12-09T06:18:57.940Z,4.96
2022-12-09T06:21:26.203Z,5.01
2022-12-09T06:23:54.362Z,4.93
2022-12-09T06:26:28.300Z,4.83
2022-12-09T06:28:57.635Z,4.90
2022-12-09T06:31:27.626Z,4.81
2022-12-09T06:33:57.935Z,4.89
2022-12-09T06:36:31.504Z,4.92
2022-12-09T06:39:09.578Z,4.52
2022-12-09T06:41:43.907Z,4.44
2022-12-09T06:44:16.923Z,4.85
2022-12-09T06:46:49.731Z,4.76
2022-12-09T06:49:18.463Z,4.74
2022-12-09T06:51:47.015Z,4.90
2022-12-09T06:54:16.013Z,4.89
2022-12-09T06:56:44.793Z,4.95
2022-12-09T06:59:13.669Z,4.97
2022-12-09T07:01:42.900Z,5.04
2022-12-09T07:04:13.437Z,4.94
2022-12-09T07:06:44.341Z,4.73
2022-12-09T07:09:16.675Z,4.65
2022-12-09T07:11:48.929Z,4.52
2022-12-09T07:14:18.637Z,4.44
2022-12-09T07:16:48.346Z,4.41
2022-12-09T07:19:23.148Z,4.33
2022-12-09T07:21:52.734Z,4.43
2022-12-09T07:24:21.451Z,4.25
2022-12-09T07:26:50.808Z,4.00
2022-12-09T07:29:19.563Z,3.98
2022-12-09T07:31:48.536Z,3.98
2022-12-09T07:34:20.288Z,3.91
2022-12-09T07:36:48.318Z,3.96
2022-12-09T07:39:18.569Z,4.14
2022-12-09T07:41:48.456Z,4.32
2022-12-09T07:44:16.942Z,4.39
2022-12-09T07:46:47.018Z,4.57
2022-12-09T07:49:16.006Z,4.67
2022-12-09T07:51:44.615Z,4.76
2022-12-09T07:54:15.241Z,4.88
2022-12-09T07:56:43.575Z,4.95
2022-12-09T07:59:13.920Z,4.89
2022-12-09T08:01:42.932Z,4.91
2022-12-09T08:04:11.364Z,4.99
2022-12-09T08:06:40.370Z,5.05
2022-12-09T08:09:12.417Z,5.05
2022-12-09T08:11:41.691Z,5.02
2022-12-09T08:14:13.054Z,4.93
2022-12-09T08:16:43.228Z,4.86
2022-12-09T08:19:13.617Z,4.89
2022-12-09T08:21:43.381Z,4.99
2022-12-09T08:24:12.744Z,4.97
2022-12-09T08:26:41.408Z,4.97
2022-12-09T08:29:14.216Z,4.86
2022-12-09T08:31:44.365Z,4.96
2022-12-09T08:34:14.537Z,5.10
2022-12-09T08:36:43.399Z,5.22
2022-12-09T08:39:13.977Z,5.20
2022-12-09T08:41:43.928Z,5.34
2022-12-09T08:44:21.132Z,5.55
2022-12-09T08:46:52.801Z,5.58
2022-12-09T08:49:23.309Z,5.67
2022-12-09T08:51:53.685Z,5.76
2022-12-09T08:54:22.407Z,5.77
2022-12-09T08:56:52.994Z,5.54
2022-12-09T08:59:25.383Z,5.38
2022-12-09T09:01:54.442Z,5.26
2022-12-09T09:04:22.980Z,5.01
2022-12-09T09:06:53.749Z,5.18
2022-12-09T09:09:23.470Z,5.06
2022-12-09T09:11:51.786Z,5.06
2022-12-09T09:14:20.996Z,4.88
2022-12-09T09:16:49.876Z,5.13
2022-12-09T09:19:21.643Z,5.39
2022-12-09T09:21:50.205Z,5.44
2022-12-09T09:24:22.175Z,5.43
2022-12-09T09:26:53.415Z,5.27
2022-12-09T09:29:23.974Z,5.22
2022-12-09T09:31:56.483Z,5.15
2022-12-09T09:34:26.881Z,5.21
2022-12-09T09:36:56.710Z,5.36
2022-12-09T09:39:24.985Z,5.22
2022-12-09T09:41:55.390Z,5.18
2022-12-09T09:44:29.778Z,5.25
2022-12-09T09:47:00.274Z,5.35
2022-12-09T09:49:35.737Z,5.71
2022-12-09T09:52:08.863Z,6.16
2022-12-09T09:54:37.964Z,6.24
2022-12-09T09:57:13.308Z,6.15
2022-12-09T10:00:12.775Z,6.25
2022-12-09T10:03:00.100Z,6.43
2022-12-09T10:05:32.966Z,6.34
2022-12-09T10:08:28.025Z,5.97
2022-12-09T10:11:11.937Z,5.76
2022-12-09T10:13:48.214Z,5.86
2022-12-09T10:16:17.753Z,5.93
2022-12-09T10:19:29.382Z,5.95
2022-12-09T10:22:00.729Z,5.90
2022-12-09T10:24:39.224Z,5.87
2022-12-09T10:27:39.795Z,5.80
2022-12-09T10:30:16.763Z,5.39
2022-12-09T10:32:46.073Z,5.12
2022-12-09T10:35:19.740Z,5.37
2022-12-09T10:37:52.518Z,5.55
2022-12-09T10:40:25.684Z,5.55
2022-12-09T10:43:16.863Z,4.97
2022-12-09T10:46:17.194Z,4.55
2022-12-09T10:48:47.980Z,4.46
2022-12-09T10:51:21.661Z,4.53
2022-12-09T10:53:54.122Z,4.81
2022-12-09T10:56:35.852Z,5.06
2022-12-09T10:59:18.009Z,5.30
2022-12-09T11:01:59.972Z,5.02
2022-12-09T11:04:31.764Z,4.80
2022-12-09T11:07:11.938Z,4.87
2022-12-09T11:09:51.045Z,4.92
2022-12-09T11:12:30.838Z,5.07
2022-12-09T11:15:05.107Z,5.26
2022-12-09T11:17:39.991Z,5.39
2022-12-09T11:20:22.544Z,5.53
2022-12-09T11:23:05.370Z,5.47
2022-12-09T11:25:37.091Z,5.54
2022-12-09T11:28:28.441Z,5.61
2022-12-09T11:31:34.445Z,5.23
2022-12-09T11:34:14.327Z,4.97
2022-12-09T11:36:48.222Z,4.81
2022-12-09T11:39:49.064Z,4.56
2022-12-09T11:42:22.572Z,4.77
2022-12-09T11:45:02.059Z,4.81
2022-12-09T11:48:21.244Z,5.07
2022-12-09T11:50:33.057Z,5.22
2022-12-09T11:53:27.450Z,5.27
2022-12-09T11:56:07.912Z,5.29
2022-12-09T11:58:51.052Z,5.27
2022-12-09T12:01:30.568Z,5.40
2022-12-09T12:04:07.694Z,5.56
2022-12-09T12:06:49.546Z,5.68
2022-12-09T12:09:24.111Z,5.79
2022-12-09T12:12:17.366Z,5.91
2022-12-09T12:14:45.764Z,5.83
2022-12-09T12:17:22.843Z,5.87
2022-12-09T12:19:53.383Z,5.94
2022-12-09T12:22:33.745Z,5.80
2022-12-09T12:25:25.883Z,5.61
2022-12-09T12:28:12.783Z,5.48
2022-12-09T12:31:18.315Z,5.44
2022-12-09T12:34:25.689Z,5.44
2022-12-09T12:37:01.792Z,5.38
2022-12-09T12:39:44.857Z,5.41
2022-12-09T12:43:12.664Z,5.11
2022-12-09T12:46:17.335Z,5.17
2022-12-09T12:49:18.457Z,5.21
2022-12-09T12:52:05.372Z,5.12
2022-12-09T12:54:39.677Z,5.12
2022-12-09T12:57:27.570Z,5.13
2022-12-09T13:00:18.291Z,5.34
2022-12-09T13:03:00.953Z,5.59
2022-12-09T13:05:41.460Z,5.60
2022-12-09T13:08:48.547Z,5.46
2022-12-09T13:11:24.004Z,5.30
2022-12-09T13:13:55.933Z,5.12
2022-12-09T13:16:31.717Z,5.01
2022-12-09T13:19:28.753Z,4.86
2022-12-09T13:21:57.637Z,4.54
2022-12-09T13:24:37.593Z,4.35
2022-12-09T13:27:09.278Z,4.16
2022-12-09T13:29:41.381Z,4.04
2022-12-09T13:32:33.387Z,3.94
2022-12-09T13:35:34.011Z,3.72
2022-12-09T13:38:03.781Z,3.69
2022-12-09T13:40:37.757Z,3.82
2022-12-09T13:43:12.016Z,3.84
2022-12-09T13:45:43.424Z,3.89
2022-12-09T13:48:16.472Z,3.76
2022-12-09T13:51:00.593Z,3.63
2022-12-09T13:53:34.972Z,3.61
2022-12-09T13:56:07.164Z,3.61
2022-12-09T13:58:41.120Z,3.67
2022-12-09T14:01:11.940Z,3.77
2022-12-09T14:03:58.511Z,3.79
2022-12-09T14:21:19.645Z,3.61
2022-12-09T14:24:11.404Z,3.47
2022-12-09T14:26:42.605Z,3.46
2022-12-09T14:29:10.644Z,3.55
2022-12-09T14:32:02.092Z,3.52
2022-12-09T14:34:39.763Z,3.64
2022-12-09T14:37:32.582Z,3.60
2022-12-09T14:40:19.567Z,3.59
2022-12-09T14:43:02.606Z,3.51
2022-12-09T14:46:03.632Z,3.51
2022-12-09T14:48:34.843Z,3.39
2022-12-09T14:51:30.959Z,3.44
2022-12-09T14:54:03.866Z,3.76
2022-12-09T14:56:34.593Z,3.83
2022-12-09T14:59:08.633Z,3.87
2022-12-09T15:02:09.997Z,3.98
2022-12-09T15:04:44.773Z,3.82
2022-12-09T15:07:16.049Z,3.46
2022-12-09T15:10:06.569Z,3.47
2022-12-09T15:12:42.693Z,3.52
2022-12-09T15:15:20.689Z,3.54
2022-12-09T15:17:58.695Z,3.55
2022-12-09T15:20:30.155Z,3.56
2022-12-09T15:23:02.152Z,3.60
2022-12-09T15:25:31.572Z,3.52
2022-12-09T15:28:03.566Z,3.44
2022-12-09T15:30:37.394Z,3.45
2022-12-09T15:33:18.274Z,3.42
2022-12-09T15:36:02.855Z,3.38
2022-12-09T15:38:40.913Z,3.33
2022-12-09T15:41:29.055Z,3.35
2022-12-09T15:44:03.404Z,3.38
2022-12-09T15:46:35.521Z,3.35
2022-12-09T15:49:06.744Z,3.32
2022-12-09T15:51:37.507Z,3.39
2022-12-09T15:54:10.699Z,3.47
2022-12-09T15:56:52.324Z,3.46
2022-12-09T15:59:25.130Z,3.44
2022-12-09T16:01:56.600Z,3.51
2022-12-09T16:04:36.863Z,3.49
2022-12-09T16:07:07.681Z,3.42
2022-12-09T16:09:36.887Z,3.46
2022-12-09T16:12:25.083Z,3.33
2022-12-09T16:14:52.928Z,3.23
2022-12-09T16:17:24.428Z,3.37
2022-12-09T16:19:52.559Z,3.43
2022-12-09T16:22:31.447Z,3.44
2022-12-09T16:25:15.323Z,3.20
2022-12-09T16:27:48.854Z,3.03
2022-12-09T16:30:23.321Z,3.06
2022-12-09T16:32:53.834Z,3.16
2022-12-09T16:35:26.070Z,3.11
2022-12-09T16:37:57.608Z,3.02
2022-12-09T16:40:26.546Z,2.97
2022-12-09T16:43:15.839Z,2.95
2022-12-09T16:45:48.536Z,2.98
2022-12-09T16:48:20.854Z,2.98
2022-12-09T16:51:14.902Z,2.98
2022-12-09T16:53:50.547Z,2.84
2022-12-09T16:56:31.034Z,2.85
2022-12-09T16:58:59.881Z,2.76
2022-12-09T17:01:35.304Z,2.74
2022-12-09T17:04:17.671Z,2.78
2022-12-09T17:06:46.228Z,2.72
2022-12-09T17:09:14.734Z,2.65
2022-12-09T17:11:48.554Z,2.56
2022-12-09T17:14:19.010Z,2.60
2022-12-09T17:16:47.662Z,2.60
2022-12-09T17:19:16.125Z,2.60
2022-12-09T17:21:44.186Z,2.52
2022-12-09T17:24:12.719Z,2.51
2022-12-09T17:26:41.531Z,2.49
2022-12-09T17:29:09.449Z,2.62
2022-12-09T17:31:37.435Z,2.56
2022-12-09T17:34:05.540Z,2.58
2022-12-09T17:36:33.387Z,2.62
2022-12-09T17:39:03.637Z,2.61
2022-12-09T17:41:31.881Z,2.54
2022-12-09T17:44:00.565Z,2.52
2022-12-09T17:46:28.590Z,2.54
2022-12-09T17:48:57.220Z,2.51
2022-12-09T17:51:28.636Z,2.42
2022-12-09T17:53:59.195Z,2.24
2022-12-09T17:56:27.209Z,2.17
2022-12-09T17:59:03.084Z,2.24
2022-12-09T18:01:34.122Z,2.20
2022-12-09T18:04:08.758Z,2.21
2022-12-09T18:06:39.852Z,2.20
2022-12-09T18:09:10.355Z,2.13
2022-12-09T18:11:39.044Z,2.07
2022-12-09T18:14:08.237Z,2.08
2022-12-09T18:16:40.741Z,2.00
2022-12-09T18:19:14.996Z,1.93
2022-12-09T18:21:44.737Z,1.93
2022-12-09T18:24:13.390Z,2.01
2022-12-09T18:26:42.528Z,2.08
2022-12-09T18:29:12.881Z,2.06
2022-12-09T18:31:41.929Z,1.97
2022-12-09T18:34:09.924Z,2.01
2022-12-09T18:36:42.079Z,1.98
2022-12-09T18:39:10.842Z,1.96
2022-12-09T18:41:39.464Z,2.01
2022-12-09T18:44:07.960Z,2.10
2022-12-09T18:46:38.748Z,2.19
2022-12-09T18:49:27.402Z,2.17
2022-12-09T18:51:56.643Z,2.13
2022-12-09T18:54:29.755Z,2.20
2022-12-09T18:57:02.031Z,2.28
2022-12-09T18:59:32.676Z,2.31
2022-12-09T19:02:03.858Z,2.39
2022-12-09T19:04:34.549Z,2.51
2022-12-09T19:07:07.014Z,2.58
2022-12-09T19:09:37.936Z,2.56
2022-12-09T19:12:38.337Z,2.46
2022-12-09T19:15:00.322Z,2.48
2022-12-09T19:17:28.789Z,2.33
2022-12-09T19:19:57.368Z,2.29
2022-12-09T19:22:26.333Z,2.27
2022-12-09T19:24:54.947Z,2.23
2022-12-09T19:27:23.386Z,2.27
2022-12-09T19:29:51.965Z,2.21
2022-12-09T19:32:51.338Z,2.18
2022-12-09T19:35:10.197Z,2.27
2022-12-09T19:37:38.841Z,2.30
2022-12-09T19:40:08.210Z,2.28
2022-12-09T19:42:37.001Z,2.28
2022-12-09T19:45:10.610Z,2.27
2022-12-09T19:47:43.547Z,2.29
2022-12-09T19:50:12.011Z,2.22
2022-12-09T19:52:43.775Z,2.21
2022-12-09T19:55:13.598Z,2.24
2022-12-09T19:57:41.618Z,2.19
2022-12-09T20:00:11.609Z,2.15
2022-12-09T20:02:41.612Z,2.19
2022-12-09T20:05:12.775Z,2.17
2022-12-09T20:07:43.683Z,2.22
2022-12-09T20:10:13.134Z,2.18
2022-12-09T20:12:42.100Z,2.10
2022-12-09T20:15:11.285Z,2.15
2022-12-09T20:17:44.205Z,2.21
2022-12-09T20:20:12.666Z,2.23
2022-12-09T20:22:41.469Z,2.21
2022-12-09T20:25:10.316Z,2.23
2022-12-09T20:27:38.510Z,2.32
2022-12-09T20:30:08.155Z,2.33
2022-12-09T20:32:36.312Z,2.39
2022-12-09T20:35:08.353Z,2.37
2022-12-09T20:37:38.557Z,2.37
2022-12-09T20:40:07.907Z,2.42
2022-12-09T20:42:37.248Z,2.52
2022-12-09T20:45:07.835Z,2.49
2022-12-09T20:47:36.122Z,2.47
2022-12-09T20:50:04.953Z,2.51
2022-12-09T20:52:33.167Z,2.51
2022-12-09T20:55:01.906Z,2.48
2022-12-09T20:57:32.436Z,2.43
2022-12-09T21:00:00.954Z,2.38
2022-12-09T21:02:30.054Z,2.44
2022-12-09T21:04:58.885Z,2.47
2022-12-09T21:07:27.347Z,2.51
2022-12-09T21:09:55.127Z,2.45
2022-12-09T21:12:23.488Z,2.56
2022-12-09T21:14:51.480Z,2.64
2022-12-09T21:17:19.601Z,2.73
2022-12-09T21:19:47.475Z,2.77
2022-12-09T21:22:16.150Z,2.64
2022-12-09T21:24:44.557Z,2.57
2022-12-09T21:27:14.780Z,2.52
2022-12-09T21:29:44.091Z,2.56
2022-12-09T21:32:12.265Z,2.52
2022-12-09T21:34:40.299Z,2.51
2022-12-09T21:37:08.243Z,2.59
2022-12-09T21:39:36.672Z,2.60
2022-12-09T21:42:04.984Z,2.56
2022-12-09T21:44:32.942Z,2.47
2022-12-09T21:47:01.082Z,2.49
2022-12-09T21:49:30.929Z,2.52
2022-12-09T21:51:59.145Z,2.51
2022-12-09T21:54:27.081Z,2.51
2022-12-09T21:56:55.062Z,2.50
2022-12-09T21:59:23.008Z,2.50
2022-12-09T22:01:50.860Z,2.47
2022-12-09T22:04:18.977Z,2.53
2022-12-09T22:06:49.387Z,2.55
2022-12-09T22:09:20.621Z,2.49
2022-12-09T22:11:49.285Z,2.41
2022-12-09T22:14:17.680Z,2.46
2022-12-09T22:16:46.709Z,2.49
2022-12-09T22:19:19.157Z,2.45
2022-12-09T22:21:48.008Z,2.37
2022-12-09T22:24:17.290Z,2.41
2022-12-09T22:26:47.367Z,2.43
2022-12-09T22:29:16.792Z,2.43
2022-12-09T22:31:45.840Z,2.47
2022-12-09T22:34:19.243Z,2.50
2022-12-09T22:36:49.403Z,2.52
2022-12-09T22:39:19.754Z,2.52
2022-12-09T22:41:48.012Z,2.53
2022-12-09T22:44:18.013Z,2.62
2022-12-09T22:46:48.747Z,2.63
2022-12-09T22:49:17.700Z,2.74
2022-12-09T22:51:46.661Z,2.85
2022-12-09T22:54:33.764Z,2.88
2022-12-09T22:57:02.346Z,2.84
2022-12-09T22:59:30.702Z,2.78
2022-12-09T23:01:58.611Z,2.83
2022-12-09T23:04:26.593Z,2.93
2022-12-09T23:06:54.299Z,2.94
2022-12-09T23:09:24.346Z,2.93
2022-12-09T23:11:53.112Z,3.00
2022-12-09T23:14:21.275Z,2.95
2022-12-09T23:16:49.562Z,2.94
2022-12-09T23:19:17.415Z,2.91
2022-12-09T23:21:45.211Z,2.97
2022-12-09T23:24:22.575Z,2.85
2022-12-09T23:26:54.744Z,2.68
2022-12-09T23:29:22.966Z,2.64
2022-12-09T23:31:51.194Z,2.62
2022-12-09T23:34:20.096Z,2.61
2022-12-09T23:36:48.581Z,2.52
2022-12-09T23:39:19.207Z,2.60
2022-12-09T23:41:48.649Z,2.67
2022-12-09T23:44:18.979Z,2.74
2022-12-09T23:46:48.269Z,2.65
2022-12-09T23:49:16.415Z,2.62
2022-12-09T23:51:44.728Z,2.61
2022-12-09T23:54:14.749Z,2.60
2022-12-09T23:56:48.154Z,2.61
2022-12-09T23:59:18.007Z,2.67
